sensor_id;sensor_type;location;lat;lon;timestamp;P1;durP1;ratioP1;P2;durP2;ratioP2
32872;SDS011;19224;52.462;16.898;2023-11-19T00:02:22;50.80;;;26.68;;
32872;SDS011;19224;52.462;16.898;2023-11-19T00:04:54;49.20;;;24.90;;
32872;SDS011;19224;52.462;16.898;2023-11-19T00:07:24;48.50;;;24.23;;
32872;SDS011;19224;52.462;16.898;2023-11-19T00:09:54;50.67;;;25.20;;
32872;SDS011;19224;52.462;16.898;2023-11-19T00:12:25;45.10;;;23.67;;
32872;SDS011;19224;52.462;16.898;2023-11-19T00:14:55;50.48;;;25.40;;
32872;SDS011;19224;52.462;16.898;2023-11-19T00:17:25;46.80;;;23.87;;
32872;SDS011;19224;52.462;16.898;2023-11-19T00:19:56;49.00;;;24.55;;
32872;SDS011;19224;52.462;16.898;2023-11-19T00:22:26;51.55;;;24.85;;
32872;SDS011;19224;52.462;16.898;2023-11-19T00:24:56;49.33;;;24.23;;
32872;SDS011;19224;52.462;16.898;2023-11-19T00:27:27;50.25;;;25.48;;
32872;SDS011;19224;52.462;16.898;2023-11-19T00:29:58;55.92;;;26.00;;
32872;SDS011;19224;52.462;16.898;2023-11-19T00:32:28;48.30;;;26.05;;
32872;SDS011;19224;52.462;16.898;2023-11-19T00:34:58;48.33;;;25.35;;
32872;SDS011;19224;52.462;16.898;2023-11-19T00:37:30;48.70;;;25.20;;
32872;SDS011;19224;52.462;16.898;2023-11-19T00:40:00;50.90;;;25.23;;
32872;SDS011;19224;52.462;16.898;2023-11-19T00:42:33;50.40;;;25.60;;
32872;SDS011;19224;52.462;16.898;2023-11-19T00:45:03;53.15;;;25.50;;
32872;SDS011;19224;52.462;16.898;2023-11-19T00:47:38;50.63;;;25.68;;
32872;SDS011;19224;52.462;16.898;2023-11-19T00:50:08;48.15;;;26.07;;
32872;SDS011;19224;52.462;16.898;2023-11-19T00:52:40;50.70;;;25.60;;
32872;SDS011;19224;52.462;16.898;2023-11-19T00:55:10;54.88;;;26.42;;
32872;SDS011;19224;52.462;16.898;2023-11-19T00:57:41;50.38;;;26.40;;
32872;SDS011;19224;52.462;16.898;2023-11-19T01:00:11;48.17;;;25.75;;
32872;SDS011;19224;52.462;16.898;2023-11-19T01:02:50;50.85;;;26.00;;
32872;SDS011;19224;52.462;16.898;2023-11-19T01:05:20;50.35;;;26.00;;
32872;SDS011;19224;52.462;16.898;2023-11-19T01:07:51;52.25;;;26.10;;
32872;SDS011;19224;52.462;16.898;2023-11-19T01:10:21;53.30;;;26.00;;
32872;SDS011;19224;52.462;16.898;2023-11-19T01:12:53;52.67;;;25.60;;
32872;SDS011;19224;52.462;16.898;2023-11-19T01:15:23;47.73;;;24.30;;
32872;SDS011;19224;52.462;16.898;2023-11-19T01:17:53;48.25;;;23.73;;
32872;SDS011;19224;52.462;16.898;2023-11-19T01:20:24;48.33;;;23.92;;
32872;SDS011;19224;52.462;16.898;2023-11-19T01:22:54;45.70;;;23.35;;
32872;SDS011;19224;52.462;16.898;2023-11-19T01:25:24;49.58;;;23.70;;
32872;SDS011;19224;52.462;16.898;2023-11-19T01:27:55;44.42;;;23.57;;
32872;SDS011;19224;52.462;16.898;2023-11-19T01:30:27;44.63;;;23.65;;
32872;SDS011;19224;52.462;16.898;2023-11-19T01:32:58;44.98;;;23.30;;
32872;SDS011;19224;52.462;16.898;2023-11-19T01:35:28;48.08;;;23.83;;
32872;SDS011;19224;52.462;16.898;2023-11-19T01:37:59;45.90;;;23.22;;
32872;SDS011;19224;52.462;16.898;2023-11-19T01:40:30;46.25;;;22.93;;
32872;SDS011;19224;52.462;16.898;2023-11-19T01:43:00;46.65;;;23.62;;
32872;SDS011;19224;52.462;16.898;2023-11-19T01:45:31;45.83;;;22.90;;
32872;SDS011;19224;52.462;16.898;2023-11-19T01:48:02;45.08;;;22.17;;
32872;SDS011;19224;52.462;16.898;2023-11-19T01:50:34;48.68;;;23.25;;
32872;SDS011;19224;52.462;16.898;2023-11-19T01:53:04;44.00;;;23.25;;
32872;SDS011;19224;52.462;16.898;2023-11-19T01:55:34;43.50;;;22.98;;
32872;SDS011;19224;52.462;16.898;2023-11-19T01:58:04;46.28;;;23.20;;
32872;SDS011;19224;52.462;16.898;2023-11-19T02:00:36;44.10;;;23.52;;
32872;SDS011;19224;52.462;16.898;2023-11-19T02:03:07;41.00;;;22.37;;
32872;SDS011;19224;52.462;16.898;2023-11-19T02:05:37;47.25;;;22.15;;
32872;SDS011;19224;52.462;16.898;2023-11-19T02:08:09;53.98;;;23.75;;
32872;SDS011;19224;52.462;16.898;2023-11-19T02:10:41;47.23;;;23.57;;
32872;SDS011;19224;52.462;16.898;2023-11-19T02:13:11;43.92;;;22.93;;
32872;SDS011;19224;52.462;16.898;2023-11-19T02:15:41;44.30;;;22.67;;
32872;SDS011;19224;52.462;16.898;2023-11-19T02:18:21;41.40;;;21.70;;
32872;SDS011;19224;52.462;16.898;2023-11-19T02:20:57;45.20;;;21.85;;
32872;SDS011;19224;52.462;16.898;2023-11-19T02:23:28;43.45;;;22.98;;
32872;SDS011;19224;52.462;16.898;2023-11-19T02:28:55;45.17;;;22.87;;
32872;SDS011;19224;52.462;16.898;2023-11-19T02:31:26;54.03;;;23.32;;
32872;SDS011;19224;52.462;16.898;2023-11-19T02:33:56;42.40;;;22.50;;
32872;SDS011;19224;52.462;16.898;2023-11-19T02:36:30;47.67;;;22.25;;
32872;SDS011;19224;52.462;16.898;2023-11-19T02:39:01;40.73;;;22.10;;
32872;SDS011;19224;52.462;16.898;2023-11-19T02:41:32;44.15;;;23.20;;
32872;SDS011;19224;52.462;16.898;2023-11-19T02:44:02;44.83;;;21.95;;
32872;SDS011;19224;52.462;16.898;2023-11-19T02:46:33;45.30;;;22.98;;
32872;SDS011;19224;52.462;16.898;2023-11-19T02:49:03;46.20;;;23.57;;
32872;SDS011;19224;52.462;16.898;2023-11-19T02:51:34;45.28;;;22.80;;
32872;SDS011;19224;52.462;16.898;2023-11-19T02:54:05;45.92;;;23.35;;
32872;SDS011;19224;52.462;16.898;2023-11-19T02:56:35;46.75;;;23.30;;
32872;SDS011;19224;52.462;16.898;2023-11-19T02:59:07;42.27;;;22.35;;
32872;SDS011;19224;52.462;16.898;2023-11-19T03:01:39;43.08;;;22.25;;
32872;SDS011;19224;52.462;16.898;2023-11-19T03:04:10;47.58;;;23.83;;
32872;SDS011;19224;52.462;16.898;2023-11-19T03:06:42;47.38;;;24.05;;
32872;SDS011;19224;52.462;16.898;2023-11-19T03:09:13;48.52;;;22.75;;
32872;SDS011;19224;52.462;16.898;2023-11-19T03:11:43;46.08;;;23.00;;
32872;SDS011;19224;52.462;16.898;2023-11-19T03:14:13;47.50;;;23.27;;
32872;SDS011;19224;52.462;16.898;2023-11-19T03:16:47;44.03;;;23.22;;
32872;SDS011;19224;52.462;16.898;2023-11-19T03:19:18;42.95;;;22.00;;
32872;SDS011;19224;52.462;16.898;2023-11-19T03:21:48;51.63;;;24.18;;
32872;SDS011;19224;52.462;16.898;2023-11-19T03:24:19;46.30;;;23.30;;
32872;SDS011;19224;52.462;16.898;2023-11-19T03:26:49;49.00;;;23.98;;
32872;SDS011;19224;52.462;16.898;2023-11-19T03:29:20;50.28;;;24.80;;
32872;SDS011;19224;52.462;16.898;2023-11-19T03:31:50;47.70;;;24.05;;
32872;SDS011;19224;52.462;16.898;2023-11-19T03:34:21;48.35;;;23.95;;
32872;SDS011;19224;52.462;16.898;2023-11-19T03:36:51;43.30;;;22.40;;
32872;SDS011;19224;52.462;16.898;2023-11-19T03:39:21;46.65;;;22.80;;
32872;SDS011;19224;52.462;16.898;2023-11-19T03:41:52;50.88;;;24.43;;
32872;SDS011;19224;52.462;16.898;2023-11-19T03:44:23;46.92;;;23.65;;
32872;SDS011;19224;52.462;16.898;2023-11-19T03:46:54;45.80;;;23.65;;
32872;SDS011;19224;52.462;16.898;2023-11-19T03:49:25;47.85;;;24.27;;
32872;SDS011;19224;52.462;16.898;2023-11-19T03:51:55;48.45;;;23.32;;
32872;SDS011;19224;52.462;16.898;2023-11-19T03:54:26;42.98;;;22.60;;
32872;SDS011;19224;52.462;16.898;2023-11-19T03:56:57;41.90;;;22.20;;
32872;SDS011;19224;52.462;16.898;2023-11-19T03:59:27;43.98;;;22.48;;
32872;SDS011;19224;52.462;16.898;2023-11-19T04:01:58;44.20;;;23.60;;
32872;SDS011;19224;52.462;16.898;2023-11-19T04:04:30;47.55;;;23.62;;
32872;SDS011;19224;52.462;16.898;2023-11-19T04:07:01;47.48;;;23.35;;
32872;SDS011;19224;52.462;16.898;2023-11-19T04:09:32;45.28;;;22.62;;
32872;SDS011;19224;52.462;16.898;2023-11-19T04:12:04;41.73;;;22.62;;
32872;SDS011;19224;52.462;16.898;2023-11-19T04:14:36;49.83;;;24.52;;
32872;SDS011;19224;52.462;16.898;2023-11-19T04:17:07;44.05;;;22.87;;
32872;SDS011;19224;52.462;16.898;2023-11-19T04:19:37;45.70;;;22.80;;
32872;SDS011;19224;52.462;16.898;2023-11-19T04:22:09;49.38;;;23.18;;
32872;SDS011;19224;52.462;16.898;2023-11-19T04:24:39;44.30;;;22.77;;
32872;SDS011;19224;52.462;16.898;2023-11-19T04:27:11;43.73;;;23.07;;
32872;SDS011;19224;52.462;16.898;2023-11-19T04:29:42;45.60;;;22.80;;
32872;SDS011;19224;52.462;16.898;2023-11-19T04:32:14;53.33;;;25.70;;
32872;SDS011;19224;52.462;16.898;2023-11-19T04:34:44;52.85;;;23.47;;
32872;SDS011;19224;52.462;16.898;2023-11-19T04:37:15;49.75;;;24.30;;
32872;SDS011;19224;52.462;16.898;2023-11-19T04:39:45;49.20;;;23.85;;
32872;SDS011;19224;52.462;16.898;2023-11-19T04:42:15;45.23;;;23.62;;
32872;SDS011;19224;52.462;16.898;2023-11-19T04:44:45;49.93;;;23.92;;
32872;SDS011;19224;52.462;16.898;2023-11-19T04:47:16;47.03;;;23.20;;
32872;SDS011;19224;52.462;16.898;2023-11-19T04:49:46;46.80;;;23.57;;
32872;SDS011;19224;52.462;16.898;2023-11-19T04:52:16;47.80;;;23.65;;
32872;SDS011;19224;52.462;16.898;2023-11-19T04:54:46;50.05;;;24.00;;
32872;SDS011;19224;52.462;16.898;2023-11-19T04:57:18;42.40;;;23.12;;
32872;SDS011;19224;52.462;16.898;2023-11-19T04:59:48;48.50;;;24.40;;
32872;SDS011;19224;52.462;16.898;2023-11-19T05:02:19;44.13;;;23.15;;
32872;SDS011;19224;52.462;16.898;2023-11-19T05:04:49;44.73;;;22.50;;
32872;SDS011;19224;52.462;16.898;2023-11-19T05:07:19;47.13;;;22.30;;
32872;SDS011;19224;52.462;16.898;2023-11-19T05:09:50;41.80;;;22.77;;
32872;SDS011;19224;52.462;16.898;2023-11-19T05:12:20;46.48;;;23.00;;
32872;SDS011;19224;52.462;16.898;2023-11-19T05:14:50;43.55;;;22.07;;
32872;SDS011;19224;52.462;16.898;2023-11-19T05:17:22;46.25;;;23.18;;
32872;SDS011;19224;52.462;16.898;2023-11-19T05:19:52;45.75;;;23.10;;
32872;SDS011;19224;52.462;16.898;2023-11-19T05:22:23;44.15;;;22.20;;
32872;SDS011;19224;52.462;16.898;2023-11-19T05:24:53;46.50;;;22.17;;
32872;SDS011;19224;52.462;16.898;2023-11-19T05:27:24;39.85;;;21.02;;
32872;SDS011;19224;52.462;16.898;2023-11-19T05:29:54;40.67;;;20.75;;
32872;SDS011;19224;52.462;16.898;2023-11-19T05:32:24;41.13;;;21.90;;
32872;SDS011;19224;52.462;16.898;2023-11-19T05:34:55;42.10;;;22.07;;
32872;SDS011;19224;52.462;16.898;2023-11-19T05:37:25;45.70;;;20.32;;
32872;SDS011;19224;52.462;16.898;2023-11-19T05:39:55;39.85;;;20.05;;
32872;SDS011;19224;52.462;16.898;2023-11-19T05:42:27;39.40;;;20.48;;
32872;SDS011;19224;52.462;16.898;2023-11-19T05:44:57;41.53;;;21.10;;
32872;SDS011;19224;52.462;16.898;2023-11-19T05:47:28;38.60;;;20.85;;
32872;SDS011;19224;52.462;16.898;2023-11-19T05:49:58;35.25;;;19.48;;
32872;SDS011;19224;52.462;16.898;2023-11-19T05:52:28;36.68;;;19.60;;
32872;SDS011;19224;52.462;16.898;2023-11-19T05:55:00;37.75;;;20.05;;
32872;SDS011;19224;52.462;16.898;2023-11-19T05:57:33;35.50;;;19.10;;
32872;SDS011;19224;52.462;16.898;2023-11-19T06:00:03;35.50;;;19.57;;
32872;SDS011;19224;52.462;16.898;2023-11-19T06:02:35;38.65;;;19.48;;
32872;SDS011;19224;52.462;16.898;2023-11-19T06:05:06;37.60;;;18.77;;
32872;SDS011;19224;52.462;16.898;2023-11-19T06:07:37;31.57;;;18.12;;
32872;SDS011;19224;52.462;16.898;2023-11-19T06:10:11;32.45;;;18.65;;
32872;SDS011;19224;52.462;16.898;2023-11-19T06:12:44;35.65;;;18.50;;
32872;SDS011;19224;52.462;16.898;2023-11-19T06:15:15;33.18;;;18.40;;
32872;SDS011;19224;52.462;16.898;2023-11-19T06:17:45;37.30;;;19.95;;
32872;SDS011;19224;52.462;16.898;2023-11-19T06:20:18;38.70;;;19.05;;
32872;SDS011;19224;52.462;16.898;2023-11-19T06:22:48;32.05;;;18.25;;
32872;SDS011;19224;52.462;16.898;2023-11-19T06:25:19;33.73;;;18.45;;
32872;SDS011;19224;52.462;16.898;2023-11-19T06:27:50;37.85;;;19.17;;
32872;SDS011;19224;52.462;16.898;2023-11-19T06:30:22;36.23;;;19.23;;
32872;SDS011;19224;52.462;16.898;2023-11-19T06:32:52;35.98;;;19.50;;
32872;SDS011;19224;52.462;16.898;2023-11-19T06:35:24;35.78;;;19.35;;
32872;SDS011;19224;52.462;16.898;2023-11-19T06:37:54;35.80;;;18.40;;
32872;SDS011;19224;52.462;16.898;2023-11-19T06:40:24;34.43;;;19.40;;
32872;SDS011;19224;52.462;16.898;2023-11-19T06:42:55;38.70;;;19.55;;
32872;SDS011;19224;52.462;16.898;2023-11-19T06:45:25;36.80;;;19.32;;
32872;SDS011;19224;52.462;16.898;2023-11-19T06:47:55;36.05;;;19.30;;
32872;SDS011;19224;52.462;16.898;2023-11-19T06:50:26;36.95;;;20.68;;
32872;SDS011;19224;52.462;16.898;2023-11-19T06:52:56;38.15;;;19.77;;
32872;SDS011;19224;52.462;16.898;2023-11-19T06:55:27;41.25;;;19.57;;
32872;SDS011;19224;52.462;16.898;2023-11-19T06:57:59;39.48;;;20.23;;
32872;SDS011;19224;52.462;16.898;2023-11-19T07:00:30;37.23;;;19.73;;
32872;SDS011;19224;52.462;16.898;2023-11-19T07:03:02;37.95;;;19.82;;
32872;SDS011;19224;52.462;16.898;2023-11-19T07:05:35;41.25;;;21.12;;
32872;SDS011;19224;52.462;16.898;2023-11-19T07:08:09;34.78;;;19.32;;
32872;SDS011;19224;52.462;16.898;2023-11-19T07:10:39;38.50;;;20.60;;
32872;SDS011;19224;52.462;16.898;2023-11-19T07:13:09;34.80;;;19.77;;
32872;SDS011;19224;52.462;16.898;2023-11-19T07:15:40;33.90;;;18.15;;
32872;SDS011;19224;52.462;16.898;2023-11-19T07:18:10;35.52;;;19.30;;
32872;SDS011;19224;52.462;16.898;2023-11-19T07:20:41;37.42;;;19.52;;
32872;SDS011;19224;52.462;16.898;2023-11-19T07:23:13;36.25;;;19.55;;
32872;SDS011;19224;52.462;16.898;2023-11-19T07:25:46;35.30;;;18.90;;
32872;SDS011;19224;52.462;16.898;2023-11-19T07:28:18;36.88;;;19.35;;
32872;SDS011;19224;52.462;16.898;2023-11-19T07:30:48;34.15;;;17.40;;
32872;SDS011;19224;52.462;16.898;2023-11-19T07:33:18;35.45;;;18.90;;
32872;SDS011;19224;52.462;16.898;2023-11-19T07:35:49;33.20;;;18.05;;
32872;SDS011;19224;52.462;16.898;2023-11-19T07:38:19;31.45;;;17.75;;
32872;SDS011;19224;52.462;16.898;2023-11-19T07:40:50;30.95;;;17.20;;
32872;SDS011;19224;52.462;16.898;2023-11-19T07:43:20;29.05;;;16.50;;
32872;SDS011;19224;52.462;16.898;2023-11-19T07:45:50;31.00;;;16.23;;
32872;SDS011;19224;52.462;16.898;2023-11-19T07:48:21;33.30;;;17.15;;
32872;SDS011;19224;52.462;16.898;2023-11-19T07:50:52;31.73;;;16.73;;
32872;SDS011;19224;52.462;16.898;2023-11-19T07:53:23;29.82;;;15.63;;
32872;SDS011;19224;52.462;16.898;2023-11-19T07:55:54;30.43;;;16.55;;
32872;SDS011;19224;52.462;16.898;2023-11-19T07:58:24;30.45;;;16.05;;
32872;SDS011;19224;52.462;16.898;2023-11-19T08:00:54;29.40;;;16.00;;
32872;SDS011;19224;52.462;16.898;2023-11-19T08:03:26;32.25;;;16.90;;
32872;SDS011;19224;52.462;16.898;2023-11-19T08:05:58;28.90;;;15.95;;
32872;SDS011;19224;52.462;16.898;2023-11-19T08:08:29;30.30;;;16.45;;
32872;SDS011;19224;52.462;16.898;2023-11-19T08:11:01;30.45;;;16.82;;
32872;SDS011;19224;52.462;16.898;2023-11-19T08:13:33;29.80;;;16.65;;
32872;SDS011;19224;52.462;16.898;2023-11-19T08:16:03;29.07;;;15.70;;
32872;SDS011;19224;52.462;16.898;2023-11-19T08:18:34;27.73;;;15.70;;
32872;SDS011;19224;52.462;16.898;2023-11-19T08:21:04;27.37;;;14.53;;
32872;SDS011;19224;52.462;16.898;2023-11-19T08:23:36;28.40;;;15.80;;
32872;SDS011;19224;52.462;16.898;2023-11-19T08:26:07;31.40;;;15.53;;
32872;SDS011;19224;52.462;16.898;2023-11-19T08:28:37;27.85;;;16.25;;
32872;SDS011;19224;52.462;16.898;2023-11-19T08:31:08;31.77;;;16.17;;
32872;SDS011;19224;52.462;16.898;2023-11-19T08:33:38;24.75;;;14.68;;
32872;SDS011;19224;52.462;16.898;2023-11-19T08:36:09;28.65;;;16.02;;
32872;SDS011;19224;52.462;16.898;2023-11-19T08:38:46;26.95;;;15.48;;
32872;SDS011;19224;52.462;16.898;2023-11-19T08:41:17;31.25;;;16.37;;
32872;SDS011;19224;52.462;16.898;2023-11-19T08:43:47;26.93;;;15.23;;
32872;SDS011;19224;52.462;16.898;2023-11-19T08:46:18;29.00;;;15.63;;
32872;SDS011;19224;52.462;16.898;2023-11-19T08:48:48;25.17;;;14.53;;
32872;SDS011;19224;52.462;16.898;2023-11-19T08:51:21;27.13;;;15.30;;
32872;SDS011;19224;52.462;16.898;2023-11-19T08:53:54;28.57;;;15.70;;
32872;SDS011;19224;52.462;16.898;2023-11-19T08:56:25;25.15;;;14.23;;
32872;SDS011;19224;52.462;16.898;2023-11-19T08:58:56;28.75;;;15.58;;
32872;SDS011;19224;52.462;16.898;2023-11-19T09:01:27;24.00;;;14.10;;
32872;SDS011;19224;52.462;16.898;2023-11-19T09:03:57;25.25;;;14.68;;
32872;SDS011;19224;52.462;16.898;2023-11-19T09:06:27;26.60;;;14.83;;
32872;SDS011;19224;52.462;16.898;2023-11-19T09:08:58;25.52;;;15.10;;
32872;SDS011;19224;52.462;16.898;2023-11-19T09:11:29;25.20;;;14.58;;
32872;SDS011;19224;52.462;16.898;2023-11-19T09:14:00;26.68;;;15.53;;
32872;SDS011;19224;52.462;16.898;2023-11-19T09:16:30;25.55;;;15.50;;
32872;SDS011;19224;52.462;16.898;2023-11-19T09:19:01;25.17;;;14.93;;
32872;SDS011;19224;52.462;16.898;2023-11-19T09:21:33;25.08;;;14.80;;
32872;SDS011;19224;52.462;16.898;2023-11-19T09:24:05;27.35;;;15.50;;
32872;SDS011;19224;52.462;16.898;2023-11-19T09:26:35;25.57;;;14.87;;
32872;SDS011;19224;52.462;16.898;2023-11-19T09:29:07;25.52;;;15.05;;
32872;SDS011;19224;52.462;16.898;2023-11-19T09:31:38;25.70;;;15.38;;
32872;SDS011;19224;52.462;16.898;2023-11-19T09:34:09;25.02;;;13.98;;
32872;SDS011;19224;52.462;16.898;2023-11-19T09:36:39;34.27;;;18.90;;
32872;SDS011;19224;52.462;16.898;2023-11-19T09:39:12;32.83;;;17.70;;
32872;SDS011;19224;52.462;16.898;2023-11-19T09:41:46;26.48;;;14.15;;
32872;SDS011;19224;52.462;16.898;2023-11-19T09:44:17;24.32;;;15.05;;
32872;SDS011;19224;52.462;16.898;2023-11-19T09:46:47;27.00;;;14.93;;
32872;SDS011;19224;52.462;16.898;2023-11-19T09:49:19;24.55;;;14.18;;
32872;SDS011;19224;52.462;16.898;2023-11-19T09:51:52;23.12;;;13.65;;
32872;SDS011;19224;52.462;16.898;2023-11-19T09:54:23;26.10;;;14.60;;
32872;SDS011;19224;52.462;16.898;2023-11-19T09:56:53;26.00;;;14.40;;
32872;SDS011;19224;52.462;16.898;2023-11-19T09:59:35;22.50;;;13.13;;
32872;SDS011;19224;52.462;16.898;2023-11-19T10:02:07;23.10;;;14.05;;
32872;SDS011;19224;52.462;16.898;2023-11-19T10:04:38;22.62;;;12.55;;
32872;SDS011;19224;52.462;16.898;2023-11-19T10:07:12;21.87;;;12.35;;
32872;SDS011;19224;52.462;16.898;2023-11-19T10:09:42;20.05;;;12.70;;
32872;SDS011;19224;52.462;16.898;2023-11-19T10:12:14;20.52;;;12.47;;
32872;SDS011;19224;52.462;16.898;2023-11-19T10:14:44;20.37;;;12.10;;
32872;SDS011;19224;52.462;16.898;2023-11-19T10:17:18;22.62;;;12.45;;
32872;SDS011;19224;52.462;16.898;2023-11-19T10:19:49;20.10;;;12.00;;
32872;SDS011;19224;52.462;16.898;2023-11-19T10:22:22;20.15;;;12.00;;
32872;SDS011;19224;52.462;16.898;2023-11-19T10:24:54;18.73;;;11.22;;
32872;SDS011;19224;52.462;16.898;2023-11-19T10:27:25;19.75;;;11.25;;
32872;SDS011;19224;52.462;16.898;2023-11-19T10:29:58;17.77;;;10.90;;
32872;SDS011;19224;52.462;16.898;2023-11-19T10:32:30;18.27;;;11.20;;
32872;SDS011;19224;52.462;16.898;2023-11-19T10:35:06;18.52;;;11.03;;
32872;SDS011;19224;52.462;16.898;2023-11-19T10:37:39;19.12;;;11.12;;
32872;SDS011;19224;52.462;16.898;2023-11-19T10:40:09;17.65;;;10.35;;
32872;SDS011;19224;52.462;16.898;2023-11-19T10:42:41;18.65;;;10.85;;
32872;SDS011;19224;52.462;16.898;2023-11-19T10:45:26;129.25;;;19.17;;
32872;SDS011;19224;52.462;16.898;2023-11-19T10:47:53;19.95;;;10.30;;
32872;SDS011;19224;52.462;16.898;2023-11-19T10:50:26;34.48;;;18.60;;
32872;SDS011;19224;52.462;16.898;2023-11-19T10:52:57;27.32;;;14.70;;
32872;SDS011;19224;52.462;16.898;2023-11-19T10:55:29;17.23;;;10.13;;
32872;SDS011;19224;52.462;16.898;2023-11-19T10:58:04;13.80;;;8.00;;
32872;SDS011;19224;52.462;16.898;2023-11-19T11:03:27;13.13;;;8.23;;
32872;SDS011;19224;52.462;16.898;2023-11-19T11:06:01;14.73;;;8.68;;
32872;SDS011;19224;52.462;16.898;2023-11-19T11:08:34;16.02;;;9.48;;
32872;SDS011;19224;52.462;16.898;2023-11-19T11:11:08;14.43;;;8.85;;
32872;SDS011;19224;52.462;16.898;2023-11-19T11:13:40;14.87;;;8.33;;
32872;SDS011;19224;52.462;16.898;2023-11-19T11:16:13;15.25;;;8.60;;
32872;SDS011;19224;52.462;16.898;2023-11-19T11:18:46;20.52;;;9.30;;
32872;SDS011;19224;52.462;16.898;2023-11-19T11:21:20;15.60;;;9.58;;
32872;SDS011;19224;52.462;16.898;2023-11-19T11:24:05;16.12;;;9.28;;
32872;SDS011;19224;52.462;16.898;2023-11-19T11:27:03;17.23;;;9.73;;
32872;SDS011;19224;52.462;16.898;2023-11-19T11:32:43;18.37;;;11.00;;
32872;SDS011;19224;52.462;16.898;2023-11-19T11:35:27;19.42;;;10.35;;
32872;SDS011;19224;52.462;16.898;2023-11-19T11:38:11;18.07;;;10.53;;
32872;SDS011;19224;52.462;16.898;2023-11-19T11:40:43;18.77;;;10.75;;
32872;SDS011;19224;52.462;16.898;2023-11-19T11:49:07;18.48;;;11.03;;
32872;SDS011;19224;52.462;16.898;2023-11-19T11:57:02;22.60;;;13.00;;
32872;SDS011;19224;52.462;16.898;2023-11-19T12:02:19;23.32;;;12.23;;
32872;SDS011;19224;52.462;16.898;2023-11-19T12:04:52;20.97;;;11.63;;
32872;SDS011;19224;52.462;16.898;2023-11-19T12:07:24;23.00;;;12.47;;
32872;SDS011;19224;52.462;16.898;2023-11-19T12:10:07;21.87;;;12.55;;
32872;SDS011;19224;52.462;16.898;2023-11-19T12:12:42;22.85;;;12.90;;
32872;SDS011;19224;52.462;16.898;2023-11-19T12:15:13;21.50;;;12.65;;
32872;SDS011;19224;52.462;16.898;2023-11-19T12:17:54;24.57;;;14.10;;
32872;SDS011;19224;52.462;16.898;2023-11-19T12:20:24;23.00;;;12.70;;
32872;SDS011;19224;52.462;16.898;2023-11-19T12:22:54;23.73;;;12.80;;
32872;SDS011;19224;52.462;16.898;2023-11-19T12:25:25;24.20;;;13.40;;
32872;SDS011;19224;52.462;16.898;2023-11-19T12:27:55;24.70;;;13.55;;
32872;SDS011;19224;52.462;16.898;2023-11-19T12:30:25;22.32;;;13.72;;
32872;SDS011;19224;52.462;16.898;2023-11-19T12:32:57;24.07;;;14.05;;
32872;SDS011;19224;52.462;16.898;2023-11-19T12:35:27;27.10;;;14.00;;
32872;SDS011;19224;52.462;16.898;2023-11-19T12:37:58;25.00;;;13.85;;
32872;SDS011;19224;52.462;16.898;2023-11-19T12:40:28;21.87;;;13.62;;
32872;SDS011;19224;52.462;16.898;2023-11-19T12:42:58;25.10;;;13.35;;
32872;SDS011;19224;52.462;16.898;2023-11-19T12:45:35;24.23;;;13.28;;
32872;SDS011;19224;52.462;16.898;2023-11-19T12:48:07;23.90;;;13.60;;
32872;SDS011;19224;52.462;16.898;2023-11-19T12:50:54;22.52;;;13.75;;
32872;SDS011;19224;52.462;16.898;2023-11-19T12:53:27;24.40;;;13.78;;
32872;SDS011;19224;52.462;16.898;2023-11-19T12:55:59;24.37;;;13.95;;
32872;SDS011;19224;52.462;16.898;2023-11-19T12:58:33;22.67;;;13.25;;
32872;SDS011;19224;52.462;16.898;2023-11-19T13:01:06;27.80;;;14.07;;
32872;SDS011;19224;52.462;16.898;2023-11-19T13:03:40;21.55;;;13.10;;
32872;SDS011;19224;52.462;16.898;2023-11-19T13:06:12;23.38;;;13.60;;
32872;SDS011;19224;52.462;16.898;2023-11-19T13:08:44;24.00;;;13.48;;
32872;SDS011;19224;52.462;16.898;2023-11-19T13:11:31;22.35;;;13.15;;
32872;SDS011;19224;52.462;16.898;2023-11-19T13:14:05;22.40;;;13.03;;
32872;SDS011;19224;52.462;16.898;2023-11-19T13:16:40;22.17;;;12.65;;
32872;SDS011;19224;52.462;16.898;2023-11-19T13:19:10;22.75;;;12.78;;
32872;SDS011;19224;52.462;16.898;2023-11-19T13:21:41;19.32;;;11.83;;
32872;SDS011;19224;52.462;16.898;2023-11-19T13:24:13;21.87;;;12.93;;
32872;SDS011;19224;52.462;16.898;2023-11-19T13:26:44;21.50;;;12.60;;
32872;SDS011;19224;52.462;16.898;2023-11-19T13:29:14;23.70;;;12.95;;
32872;SDS011;19224;52.462;16.898;2023-11-19T13:31:45;38.48;;;20.75;;
32872;SDS011;19224;52.462;16.898;2023-11-19T13:34:15;25.65;;;14.80;;
32872;SDS011;19224;52.462;16.898;2023-11-19T13:36:46;21.05;;;12.20;;
32872;SDS011;19224;52.462;16.898;2023-11-19T13:39:16;22.05;;;12.75;;
32872;SDS011;19224;52.462;16.898;2023-11-19T13:41:48;23.67;;;12.75;;
32872;SDS011;19224;52.462;16.898;2023-11-19T13:44:19;20.92;;;12.70;;
32872;SDS011;19224;52.462;16.898;2023-11-19T13:46:49;22.93;;;13.43;;
32872;SDS011;19224;52.462;16.898;2023-11-19T13:49:23;23.05;;;13.62;;
32872;SDS011;19224;52.462;16.898;2023-11-19T13:51:53;25.92;;;13.80;;
32872;SDS011;19224;52.462;16.898;2023-11-19T13:54:24;28.02;;;17.20;;
32872;SDS011;19224;52.462;16.898;2023-11-19T13:56:57;22.77;;;14.07;;
32872;SDS011;19224;52.462;16.898;2023-11-19T13:59:28;24.47;;;14.28;;
32872;SDS011;19224;52.462;16.898;2023-11-19T14:02:05;25.27;;;13.58;;
32872;SDS011;19224;52.462;16.898;2023-11-19T14:04:36;29.92;;;14.43;;
32872;SDS011;19224;52.462;16.898;2023-11-19T14:07:06;26.90;;;14.33;;
32872;SDS011;19224;52.462;16.898;2023-11-19T14:09:37;25.50;;;13.83;;
32872;SDS011;19224;52.462;16.898;2023-11-19T14:12:08;25.97;;;13.08;;
32872;SDS011;19224;52.462;16.898;2023-11-19T14:14:40;24.32;;;13.20;;
32872;SDS011;19224;52.462;16.898;2023-11-19T14:17:10;23.90;;;13.13;;
32872;SDS011;19224;52.462;16.898;2023-11-19T14:19:41;24.87;;;13.53;;
32872;SDS011;19224;52.462;16.898;2023-11-19T14:22:12;20.57;;;12.58;;
32872;SDS011;19224;52.462;16.898;2023-11-19T14:24:42;24.90;;;13.70;;
32872;SDS011;19224;52.462;16.898;2023-11-19T14:27:13;24.10;;;13.95;;
32872;SDS011;19224;52.462;16.898;2023-11-19T14:29:45;22.42;;;12.55;;
32872;SDS011;19224;52.462;16.898;2023-11-19T14:32:16;25.17;;;13.60;;
32872;SDS011;19224;52.462;16.898;2023-11-19T14:34:46;21.27;;;12.50;;
32872;SDS011;19224;52.462;16.898;2023-11-19T14:37:16;19.50;;;11.88;;
32872;SDS011;19224;52.462;16.898;2023-11-19T14:39:47;19.67;;;11.97;;
32872;SDS011;19224;52.462;16.898;2023-11-19T14:42:18;20.68;;;12.37;;
32872;SDS011;19224;52.462;16.898;2023-11-19T14:44:51;22.27;;;12.75;;
32872;SDS011;19224;52.462;16.898;2023-11-19T14:47:23;21.42;;;12.23;;
32872;SDS011;19224;52.462;16.898;2023-11-19T14:49:53;23.32;;;12.68;;
32872;SDS011;19224;52.462;16.898;2023-11-19T14:52:23;20.80;;;12.35;;
32872;SDS011;19224;52.462;16.898;2023-11-19T14:54:54;21.95;;;12.60;;
32872;SDS011;19224;52.462;16.898;2023-11-19T14:57:24;20.27;;;11.97;;